Time;durP1;ratioP1;P1;durP2;ratioP2;P2;SDS_P1;SDS_P2;PMS_P1;PMS_P2;Temp;Humidity;BMP_temperature;BMP_pressure;BME280_temperature;BME280_humidity;BME280_pressure;Samples;Min_cycle;Max_cycle;Signal;HPM_P1;HPM_P2
2022/01/14 00:02:13;;;;;;;21.50;10.30;;;3.00;99.90;;;;;;5045173;28;20213;-66
2022/01/14 00:04:39;;;;;;;25.43;11.40;;;2.90;99.90;;;;;;5044546;28;20744;-65
2022/01/14 00:07:06;;;;;;;25.93;12.70;;;2.90;99.90;;;;;;5044971;28;20197;-68
2022/01/14 00:09:33;;;;;;;23.00;11.50;;;3.00;99.90;;;;;;5044719;28;20189;-68
2022/01/14 00:12:00;;;;;;;25.63;12.83;;;3.00;99.90;;;;;;5040820;28;20182;-67
2022/01/14 00:14:38;;;;;;;27.27;13.40;;;3.00;99.90;;;;;;5042806;28;20296;-67
2022/01/14 00:17:12;;;;;;;26.40;12.43;;;3.00;99.90;;;;;;5026271;28;20182;-67
2022/01/14 00:19:39;;;;;;;25.23;12.17;;;2.90;99.90;;;;;;5043167;28;20232;-67
2022/01/14 00:22:10;;;;;;;29.13;13.10;;;3.00;99.90;;;;;;5044500;28;20273;-66
2022/01/14 00:33:05;;;;;;;28.63;12.60;;;3.00;99.90;;;;;;5044045;28;20211;-68
2022/01/14 00:35:32;;;;;;;25.10;11.77;;;2.90;99.90;;;;;;5025006;28;20339;-66
2022/01/14 00:37:58;;;;;;;29.03;12.50;;;3.00;99.90;;;;;;5044283;28;20187;-67
2022/01/14 00:40:24;;;;;;;30.30;12.17;;;3.00;99.90;;;;;;5043219;28;20224;-66
2022/01/14 00:42:51;;;;;;;26.53;12.23;;;3.00;99.90;;;;;;5025805;28;20186;-67
2022/01/14 00:45:18;;;;;;;22.37;11.33;;;2.90;99.90;;;;;;5025695;28;20211;-67
2022/01/14 00:47:44;;;;;;;26.07;12.33;;;2.90;99.90;;;;;;5043729;28;20182;-68
2022/01/14 00:50:13;;;;;;;26.90;12.47;;;3.00;99.90;;;;;;5043405;28;20280;-68
2022/01/14 00:52:40;;;;;;;23.77;12.37;;;2.90;99.90;;;;;;5043841;28;20642;-68
2022/01/14 00:55:08;;;;;;;26.53;12.47;;;2.90;99.90;;;;;;5043655;28;20628;-68
2022/01/14 01:00:22;;;;;;;24.07;12.07;;;2.90;99.90;;;;;;5043585;28;20657;-69
2022/01/14 01:02:48;;;;;;;27.00;11.40;;;2.90;99.90;;;;;;5044072;28;20182;-69
2022/01/14 01:05:15;;;;;;;25.27;11.83;;;2.90;99.90;;;;;;5044153;28;20186;-70
2022/01/14 01:07:42;;;;;;;23.73;11.67;;;2.90;99.90;;;;;;5044240;28;20197;-66
2022/01/14 01:10:10;;;;;;;26.07;11.57;;;3.00;99.90;;;;;;5043265;28;20669;-69
2022/01/14 01:13:25;;;;;;;23.77;11.70;;;3.00;99.90;;;;;;5043883;28;20186;-67
2022/01/14 01:15:22;;;;;;;24.30;11.70;;;3.00;99.90;;;;;;5033517;28;20252;-68
2022/01/14 01:17:48;;;;;;;27.90;12.13;;;3.10;99.90;;;;;;5043746;28;20194;-70
2022/01/14 01:20:18;;;;;;;28.40;11.90;;;3.10;99.90;;;;;;5043107;28;20273;-68
2022/01/14 01:22:47;;;;;;;25.60;12.83;;;3.10;99.90;;;;;;5026017;28;20285;-70
2022/01/14 01:25:15;;;;;;;23.20;11.63;;;3.10;99.90;;;;;;5044300;28;20619;-67
2022/01/14 01:27:43;;;;;;;26.87;12.50;;;3.10;99.90;;;;;;5043742;28;20185;-68
2022/01/14 01:30:15;;;;;;;28.67;13.33;;;3.10;99.90;;;;;;5043043;28;20273;-66
2022/01/14 01:32:45;;;;;;;23.07;11.83;;;3.00;99.90;;;;;;5025704;28;20201;-69
2022/01/14 01:35:10;;;;;;;24.40;11.37;;;3.00;99.90;;;;;;5044001;28;20210;-69
2022/01/14 01:37:36;;;;;;;24.03;11.90;;;3.00;99.90;;;;;;5044120;28;20184;-68
2022/01/14 01:40:03;;;;;;;23.90;11.77;;;3.00;99.90;;;;;;5043602;28;20300;-66
2022/01/14 01:42:30;;;;;;;25.57;11.47;;;3.10;99.90;;;;;;5043703;28;20199;-66
2022/01/14 01:44:59;;;;;;;25.40;11.73;;;3.10;99.90;;;;;;5043734;28;20234;-69
2022/01/14 01:47:24;;;;;;;21.83;11.30;;;3.10;99.90;;;;;;5045397;28;20192;-67
2022/01/14 01:49:50;;;;;;;25.67;12.40;;;3.10;99.90;;;;;;5047062;28;20186;-66
2022/01/14 01:52:16;;;;;;;24.43;13.07;;;3.10;99.90;;;;;;5047607;28;20252;-66
2022/01/14 01:54:41;;;;;;;26.07;12.00;;;3.10;99.90;;;;;;5029552;28;20216;-68
2022/01/14 01:57:07;;;;;;;20.87;10.87;;;3.10;99.90;;;;;;5047561;28;20663;-69
2022/01/14 01:59:33;;;;;;;24.77;11.33;;;3.00;99.90;;;;;;5047032;28;20190;-66
2022/01/14 02:02:01;;;;;;;25.83;11.83;;;3.10;99.90;;;;;;5047356;28;20197;-69
2022/01/14 02:04:28;;;;;;;26.10;12.00;;;3.10;99.90;;;;;;5047413;28;20206;-69
2022/01/14 02:06:54;;;;;;;28.10;12.70;;;3.10;99.90;;;;;;5047427;28;20186;-67
2022/01/14 02:09:21;;;;;;;22.50;11.50;;;3.10;99.90;;;;;;5046544;28;20189;-68
2022/01/14 02:11:47;;;;;;;24.90;12.07;;;3.10;99.90;;;;;;5047254;28;20590;-66
2022/01/14 02:14:28;;;;;;;29.63;12.60;;;3.20;99.90;;;;;;5046946;28;20194;-69
2022/01/14 02:17:33;;;;;;;25.70;11.63;;;3.20;99.90;;;;;;5047630;28;20182;-67
2022/01/14 02:22:55;;;;;;;22.33;11.60;;;3.10;99.90;;;;;;5047221;28;20244;-68
2022/01/14 02:25:29;;;;;;;25.97;11.47;;;3.10;99.90;;;;;;5046925;28;20668;-66
2022/01/14 02:28:05;;;;;;;24.27;12.10;;;3.10;99.90;;;;;;5047056;28;20281;-69
2022/01/14 02:30:32;;;;;;;23.00;10.77;;;3.10;99.90;;;;;;5046219;28;20192;-68
2022/01/14 02:32:58;;;;;;;22.47;11.63;;;3.10;99.90;;;;;;5046704;28;20238;-66
2022/01/14 02:35:24;;;;;;;22.07;11.10;;;3.10;99.90;;;;;;5047060;28;20271;-69
2022/01/14 02:37:51;;;;;;;25.43;11.83;;;3.20;99.90;;;;;;5028961;28;20186;-67
2022/01/14 02:40:17;;;;;;;25.90;11.97;;;3.20;99.90;;;;;;5045935;28;20183;-67
2022/01/14 02:42:43;;;;;;;20.23;10.13;;;3.20;99.90;;;;;;5047146;28;20170;-67
2022/01/14 02:45:11;;;;;;;26.70;11.77;;;3.20;99.90;;;;;;5047307;28;20190;-68
2022/01/14 02:47:37;;;;;;;24.37;11.57;;;3.20;99.90;;;;;;5046450;28;20182;-67
2022/01/14 02:50:07;;;;;;;24.60;11.43;;;3.20;99.90;;;;;;5045980;28;20665;-69
2022/01/14 02:55:19;;;;;;;20.77;10.73;;;3.20;99.90;;;;;;5046023;28;20214;-68
2022/01/14 02:57:47;;;;;;;24.57;12.10;;;3.20;99.90;;;;;;5046222;28;20185;-66
2022/01/14 03:00:14;;;;;;;21.43;10.97;;;3.20;99.90;;;;;;5045487;28;20193;-66
2022/01/14 03:02:45;;;;;;;25.43;12.07;;;3.10;99.90;;;;;;5046177;28;20700;-68
2022/01/14 03:05:11;;;;;;;25.93;11.70;;;3.10;99.90;;;;;;5046652;28;20194;-67
2022/01/14 03:07:38;;;;;;;21.60;11.10;;;3.10;99.90;;;;;;5046087;28;20240;-68
2022/01/14 03:10:04;;;;;;;26.40;12.30;;;3.10;99.90;;;;;;5017398;28;20280;-65
2022/01/14 03:12:30;;;;;;;22.87;11.00;;;3.10;99.90;;;;;;5046248;28;20572;-68
2022/01/14 03:14:56;;;;;;;27.60;12.10;;;3.10;99.90;;;;;;5046222;28;20268;-67
2022/01/14 03:17:21;;;;;;;25.17;11.63;;;3.10;99.90;;;;;;5046565;28;20182;-67
2022/01/14 03:19:48;;;;;;;26.70;11.80;;;3.10;99.90;;;;;;5045539;28;20188;-70
2022/01/14 03:22:26;;;;;;;26.20;12.20;;;3.10;99.90;;;;;;5046096;28;20183;-67
2022/01/14 03:27:17;;;;;;;23.07;11.17;;;3.10;99.90;;;;;;5045885;28;20267;-69
2022/01/14 03:29:44;;;;;;;23.63;12.03;;;3.10;99.90;;;;;;5045236;28;20564;-66
2022/01/14 03:32:09;;;;;;;22.33;11.40;;;3.10;99.90;;;;;;5045691;28;20675;-67
2022/01/14 03:34:35;;;;;;;20.87;11.93;;;3.00;99.90;;;;;;5045971;28;20321;-67
2022/01/14 03:37:01;;;;;;;23.07;10.93;;;3.10;99.90;;;;;;5045694;28;20185;-68
2022/01/14 03:39:27;;;;;;;20.87;10.93;;;3.10;99.90;;;;;;5044624;28;20654;-67
2022/01/14 03:41:52;;;;;;;21.83;10.13;;;3.00;99.90;;;;;;5045970;28;20182;-68
2022/01/14 03:44:19;;;;;;;22.83;10.80;;;3.00;99.90;;;;;;5045587;28;20576;-67
2022/01/14 03:46:45;;;;;;;25.73;11.03;;;3.10;99.90;;;;;;5045558;28;20599;-66
2022/01/14 03:49:11;;;;;;;26.10;11.57;;;3.00;99.90;;;;;;5044589;28;20217;-67
2022/01/14 03:51:37;;;;;;;23.13;11.60;;;3.10;99.90;;;;;;5027278;28;20660;-67
2022/01/14 03:54:02;;;;;;;26.73;11.60;;;3.10;99.90;;;;;;5044885;28;20198;-70
2022/01/14 03:56:28;;;;;;;26.00;12.70;;;3.10;99.90;;;;;;5043851;28;20279;-66
2022/01/14 03:58:54;;;;;;;28.53;11.77;;;3.10;99.90;;;;;;5044551;28;20739;-68
2022/01/14 04:01:21;;;;;;;23.73;11.27;;;3.10;99.90;;;;;;5043481;28;20192;-68
2022/01/14 04:03:48;;;;;;;22.07;11.73;;;3.10;99.90;;;;;;5044821;28;20230;-66
2022/01/14 04:06:14;;;;;;;24.33;11.57;;;3.10;99.90;;;;;;5044761;28;20190;-68
2022/01/14 04:08:41;;;;;;;21.03;11.17;;;3.00;99.90;;;;;;5022647;28;20186;-68
2022/01/14 04:11:08;;;;;;;22.30;11.57;;;3.10;99.90;;;;;;5042410;28;20190;-68
2022/01/14 04:13:47;;;;;;;23.67;11.93;;;3.00;99.90;;;;;;5043780;28;20263;-69
2022/01/14 04:16:14;;;;;;;23.77;11.63;;;3.00;99.90;;;;;;5043628;28;20174;-66
2022/01/14 04:18:40;;;;;;;25.50;12.57;;;3.10;99.90;;;;;;5044442;28;20224;-66
2022/01/14 04:21:06;;;;;;;25.13;11.50;;;3.10;99.90;;;;;;5043865;28;20181;-67
2022/01/14 04:23:32;;;;;;;23.60;11.63;;;3.00;99.90;;;;;;5044478;28;20237;-69
2022/01/14 04:25:58;;;;;;;21.30;11.20;;;3.10;99.90;;;;;;5044548;28;20529;-67
2022/01/14 04:28:29;;;;;;;24.17;11.53;;;3.00;99.90;;;;;;5026382;28;20663;-67
2022/01/14 04:30:54;;;;;;;26.10;12.27;;;3.10;99.90;;;;;;5041382;28;20186;-66
2022/01/14 04:33:25;;;;;;;22.57;11.50;;;3.10;99.90;;;;;;5043160;28;20988;-67
2022/01/14 04:35:51;;;;;;;26.50;13.20;;;3.10;99.90;;;;;;5042634;28;20262;-67
2022/01/14 04:38:17;;;;;;;25.47;11.33;;;3.00;99.90;;;;;;5042190;28;20243;-67
2022/01/14 04:40:43;;;;;;;24.20;11.33;;;3.10;99.90;;;;;;5023673;28;20174;-67
2022/01/14 04:43:08;;;;;;;23.60;12.17;;;3.10;99.90;;;;;;5042541;28;20261;-67
2022/01/14 04:47:59;;;;;;;25.23;11.50;;;3.00;99.90;;;;;;5042446;28;20186;-67
2022/01/14 04:50:25;;;;;;;24.83;11.90;;;3.00;99.90;;;;;;5043477;28;20300;-67
2022/01/14 04:52:51;;;;;;;24.13;11.30;;;3.00;99.90;;;;;;5044285;28;20604;-67
2022/01/14 04:55:21;;;;;;;27.30;12.50;;;3.00;99.90;;;;;;5044074;28;20245;-68
2022/01/14 04:57:47;;;;;;;26.50;12.17;;;3.00;99.90;;;;;;5043637;28;20174;-68
2022/01/14 05:00:19;;;;;;;22.93;11.20;;;3.00;99.90;;;;;;5043505;28;20182;-67
2022/01/14 05:02:45;;;;;;;21.23;11.97;;;3.00;99.90;;;;;;5044204;28;20178;-66
2022/01/14 05:05:11;;;;;;;27.00;11.70;;;3.00;99.90;;;;;;5044214;28;20192;-67
2022/01/14 05:07:38;;;;;;;24.03;12.17;;;3.10;99.90;;;;;;5026208;28;20672;-67
2022/01/14 05:12:35;;;;;;;22.63;12.37;;;3.10;99.90;;;;;;5044039;28;20226;-68
2022/01/14 05:15:02;;;;;;;23.80;12.40;;;3.10;99.90;;;;;;5044038;28;20210;-66
2022/01/14 05:17:28;;;;;;;25.20;11.53;;;3.10;99.90;;;;;;5043829;28;20645;-67
2022/01/14 05:19:54;;;;;;;25.67;12.40;;;3.10;99.90;;;;;;5043645;28;20184;-68
2022/01/14 05:22:21;;;;;;;22.47;12.23;;;3.10;99.90;;;;;;5044757;28;20174;-69
2022/01/14 05:24:47;;;;;;;26.43;12.77;;;3.10;99.90;;;;;;5047928;28;20795;-67
2022/01/14 05:27:13;;;;;;;25.77;12.37;;;3.10;99.90;;;;;;5048072;28;20186;-66
2022/01/14 05:29:39;;;;;;;26.03;12.70;;;3.10;99.90;;;;;;5046834;28;20676;-66
2022/01/14 05:32:09;;;;;;;26.53;12.77;;;3.10;99.90;;;;;;5047378;28;20213;-69
2022/01/14 05:34:35;;;;;;;26.17;13.13;;;3.10;99.90;;;;;;5047615;28;20684;-68
2022/01/14 05:37:03;;;;;;;24.20;12.33;;;3.10;99.90;;;;;;5047491;28;20179;-68
2022/01/14 05:39:30;;;;;;;27.13;13.37;;;3.10;99.90;;;;;;5046847;28;20277;-68
2022/01/14 05:41:56;;;;;;;26.80;13.50;;;3.10;99.90;;;;;;5047518;28;20217;-65
2022/01/14 05:44:26;;;;;;;29.20;12.87;;;3.10;99.90;;;;;;5047754;28;20208;-67
2022/01/14 05:46:53;;;;;;;31.30;13.57;;;3.20;99.90;;;;;;5047375;28;20213;-68
2022/01/14 05:49:19;;;;;;;28.87;13.67;;;3.20;99.90;;;;;;5046520;28;20744;-71
2022/01/14 05:51:46;;;;;;;27.63;13.03;;;3.20;99.90;;;;;;5047292;28;20187;-67
2022/01/14 05:54:12;;;;;;;27.47;12.73;;;3.10;99.90;;;;;;5047188;28;20210;-70
2022/01/14 05:56:38;;;;;;;23.27;12.77;;;3.00;99.90;;;;;;5047019;28;20205;-67
2022/01/14 05:59:04;;;;;;;24.30;12.37;;;3.10;99.90;;;;;;5046944;28;20186;-68
2022/01/14 06:01:32;;;;;;;28.50;12.93;;;3.10;99.90;;;;;;5046514;28;20178;-65
2022/01/14 06:04:00;;;;;;;28.17;12.67;;;3.20;99.90;;;;;;5047226;28;20210;-68
2022/01/14 06:06:26;;;;;;;25.63;12.87;;;3.20;99.90;;;;;;5047150;28;20186;-67
2022/01/14 06:08:51;;;;;;;23.27;12.33;;;3.20;99.90;;;;;;5046789;28;20190;-68
2022/01/14 06:11:17;;;;;;;25.07;12.30;;;3.20;99.90;;;;;;5046385;28;20653;-66
2022/01/14 06:13:43;;;;;;;24.90;11.53;;;3.20;99.90;;;;;;5046711;28;20198;-67
2022/01/14 06:16:09;;;;;;;23.27;12.20;;;3.10;99.90;;;;;;5047211;28;20189;-69
2022/01/14 06:18:35;;;;;;;24.77;11.80;;;3.10;99.90;;;;;;5046699;28;20178;-68
2022/01/14 06:21:00;;;;;;;23.23;11.57;;;3.00;99.90;;;;;;5046192;28;20189;-67
2022/01/14 06:23:26;;;;;;;28.77;13.03;;;3.00;99.90;;;;;;5046852;28;20206;-68
2022/01/14 06:25:52;;;;;;;25.07;12.27;;;3.00;99.90;;;;;;5046756;28;20194;-68
2022/01/14 06:28:17;;;;;;;27.17;13.33;;;3.00;99.90;;;;;;5046461;28;20190;-68
2022/01/14 06:30:43;;;;;;;25.57;12.80;;;2.90;99.90;;;;;;5045726;28;20186;-69
2022/01/14 06:33:09;;;;;;;23.13;12.13;;;3.00;99.90;;;;;;5046161;28;20285;-66
2022/01/14 06:35:35;;;;;;;27.23;12.77;;;3.00;99.90;;;;;;5046039;28;20196;-66
2022/01/14 06:38:01;;;;;;;27.17;14.23;;;3.10;99.90;;;;;;5046716;28;20265;-67
2022/01/14 06:40:30;;;;;;;22.80;12.00;;;3.10;99.90;;;;;;5045579;28;20182;-68
2022/01/14 06:42:56;;;;;;;24.37;12.40;;;3.10;99.90;;;;;;5046406;28;20272;-68
2022/01/14 06:45:23;;;;;;;24.17;12.43;;;3.10;99.90;;;;;;5047027;28;20596;-67
2022/01/14 06:47:49;;;;;;;22.83;11.67;;;3.10;99.90;;;;;;5046098;28;20654;-67
2022/01/14 06:50:16;;;;;;;28.63;14.37;;;3.10;99.90;;;;;;5027698;28;20186;-70
2022/01/14 06:52:41;;;;;;;24.87;12.40;;;3.10;99.90;;;;;;5046457;28;20725;-67
2022/01/14 06:55:08;;;;;;;24.63;12.47;;;3.10;99.90;;;;;;5046537;28;20297;-66
2022/01/14 06:57:35;;;;;;;26.43;12.80;;;3.10;99.90;;;;;;5046272;28;20201;-68
2022/01/14 07:00:03;;;;;;;28.07;13.73;;;3.20;99.90;;;;;;5045612;28;20174;-67
2022/01/14 07:02:29;;;;;;;25.27;12.87;;;3.20;99.90;;;;;;5046301;28;20676;-71
2022/01/14 07:04:54;;;;;;;27.33;12.63;;;3.30;99.90;;;;;;5046666;28;20210;-67
2022/01/14 07:07:20;;;;;;;24.83;13.20;;;3.40;99.90;;;;;;5045812;28;20629;-65
2022/01/14 07:09:58;;;;;;;23.67;12.77;;;3.40;99.90;;;;;;5045039;28;20193;-68
2022/01/14 07:12:30;;;;;;;27.13;12.67;;;3.40;99.90;;;;;;5046217;28;20186;-66
2022/01/14 07:14:56;;;;;;;23.57;12.10;;;3.50;99.90;;;;;;5045790;28;20248;-68
2022/01/14 07:17:23;;;;;;;25.97;12.60;;;3.50;99.90;;;;;;5045854;28;20190;-68
2022/01/14 07:19:52;;;;;;;21.60;12.37;;;3.50;99.90;;;;;;5045284;28;20689;-69
2022/01/14 07:22:18;;;;;;;21.10;11.23;;;3.50;99.90;;;;;;5045835;28;20619;-68
2022/01/14 07:24:43;;;;;;;27.40;12.43;;;3.50;99.90;;;;;;5045617;28;20292;-66
2022/01/14 07:27:09;;;;;;;23.73;11.13;;;3.50;99.90;;;;;;5046196;28;20265;-67
2022/01/14 07:29:35;;;;;;;28.10;13.50;;;3.50;99.90;;;;;;5045188;28;20209;-68
2022/01/14 07:32:00;;;;;;;26.07;12.20;;;3.60;99.90;;;;;;5042587;28;20281;-66
2022/01/14 07:34:26;;;;;;;28.20;12.93;;;3.60;99.90;;;;;;5043297;28;20315;-66
2022/01/14 07:36:52;;;;;;;21.33;11.50;;;3.60;99.90;;;;;;5034213;28;20190;-67
2022/01/14 07:39:19;;;;;;;23.17;11.87;;;3.60;99.90;;;;;;5039851;28;20237;-67
2022/01/14 07:41:48;;;;;;;23.60;12.27;;;3.50;99.90;;;;;;5040768;28;20716;-67
2022/01/14 07:44:14;;;;;;;23.37;11.03;;;3.60;99.90;;;;;;5041498;28;20211;-68
2022/01/14 07:46:41;;;;;;;23.77;11.67;;;3.60;99.90;;;;;;5041758;28;20188;-69
2022/01/14 07:49:07;;;;;;;21.03;12.07;;;3.70;99.90;;;;;;5041349;28;20276;-68
2022/01/14 07:51:33;;;;;;;22.53;12.37;;;3.60;99.90;;;;;;5039151;28;20283;-68
2022/01/14 07:54:04;;;;;;;23.40;11.80;;;3.60;99.90;;;;;;5041151;28;20800;-67
2022/01/14 07:56:45;;;;;;;25.80;11.80;;;3.70;99.90;;;;;;5041743;28;20224;-66
2022/01/14 07:59:15;;;;;;;21.50;10.73;;;3.70;99.90;;;;;;5041495;28;20672;-67
2022/01/14 08:01:42;;;;;;;18.63;11.53;;;3.80;99.90;;;;;;5042193;28;20205;-66
2022/01/14 08:04:08;;;;;;;22.23;11.33;;;3.70;99.90;;;;;;5041609;28;20206;-66
2022/01/14 08:06:38;;;;;;;23.70;11.87;;;3.70;99.90;;;;;;5042256;28;20182;-68
2022/01/14 08:09:04;;;;;;;24.70;12.43;;;3.70;99.90;;;;;;5042057;28;20221;-68
2022/01/14 08:11:30;;;;;;;21.77;11.53;;;3.70;99.90;;;;;;5041705;28;20619;-67
2022/01/14 08:13:55;;;;;;;20.30;11.77;;;3.80;99.90;;;;;;5041770;28;20221;-68
2022/01/14 08:16:21;;;;;;;21.23;11.10;;;3.70;99.90;;;;;;5041873;28;20186;-67
2022/01/14 08:18:47;;;;;;;23.33;11.57;;;3.70;99.90;;;;;;5041221;28;20276;-66
2022/01/14 08:21:15;;;;;;;24.13;12.07;;;3.80;99.90;;;;;;5041198;28;20261;-66
2022/01/14 08:23:41;;;;;;;25.17;11.93;;;3.80;99.90;;;;;;5024273;28;20757;-66
2022/01/14 08:26:07;;;;;;;22.63;11.87;;;3.80;99.90;;;;;;5042043;28;20186;-66
2022/01/14 08:28:33;;;;;;;21.60;12.07;;;3.80;99.90;;;;;;5042083;28;20646;-66
2022/01/14 08:30:58;;;;;;;21.93;12.50;;;3.90;99.90;;;;;;5041086;28;20673;-67
2022/01/14 08:33:24;;;;;;;25.83;12.77;;;3.90;99.90;;;;;;5041703;28;20209;-67
2022/01/14 08:35:50;;;;;;;22.87;11.73;;;3.90;99.90;;;;;;5042246;28;20650;-71
2022/01/14 08:38:16;;;;;;;22.37;12.50;;;3.90;99.90;;;;;;5042020;28;20268;-70
2022/01/14 08:40:42;;;;;;;24.97;12.37;;;3.90;99.90;;;;;;5040943;28;20645;-66
2022/01/14 08:43:08;;;;;;;21.13;12.00;;;3.90;99.90;;;;;;5041556;28;20263;-66
2022/01/14 08:45:34;;;;;;;22.60;11.90;;;4.00;99.90;;;;;;5042121;28;20189;-66
2022/01/14 08:48:00;;;;;;;21.90;12.33;;;4.00;99.90;;;;;;5041737;28;20213;-67
2022/01/14 08:50:29;;;;;;;23.10;11.87;;;3.90;99.90;;;;;;5041287;28;20186;-66
2022/01/14 08:52:55;;;;;;;25.63;12.17;;;4.00;99.90;;;;;;5040262;28;20174;-67
2022/01/14 08:55:22;;;;;;;25.40;12.70;;;4.00;99.90;;;;;;5040963;28;20292;-66
2022/01/14 09:02:58;;;;;;;26.67;12.60;;;4.10;99.90;;;;;;5384417;23;20227;-77
2022/01/14 09:05:25;;;;;;;22.00;12.03;;;4.00;99.90;;;;;;5001077;28;20580;-78
2022/01/14 09:07:51;;;;;;;26.40;13.23;;;4.10;99.90;;;;;;5003247;28;20207;-78
2022/01/14 09:10:18;;;;;;;24.27;13.07;;;4.10;99.90;;;;;;5007009;28;20191;-78
2022/01/14 09:12:43;;;;;;;23.20;12.03;;;4.20;99.90;;;;;;5004859;28;20207;-77
2022/01/14 09:15:10;;;;;;;24.30;12.83;;;4.20;99.90;;;;;;5004340;28;20218;-78
2022/01/14 09:17:36;;;;;;;27.70;12.73;;;4.20;99.90;;;;;;4984074;28;20237;-77
2022/01/14 09:25:13;;;;;;;27.20;14.07;;;4.40;99.90;;;;;;5497825;23;20239;-78
2022/01/14 09:27:38;;;;;;;23.30;12.43;;;4.40;99.90;;;;;;4969946;28;20214;-77
2022/01/14 09:30:05;;;;;;;26.30;13.73;;;4.50;99.90;;;;;;4986737;28;20316;-76
2022/01/14 09:32:31;;;;;;;23.37;13.60;;;4.50;99.90;;;;;;4987178;28;20744;-79
2022/01/14 09:34:56;;;;;;;28.63;15.17;;;4.50;99.90;;;;;;4987913;28;20278;-76
2022/01/14 09:37:22;;;;;;;28.70;13.57;;;4.50;99.90;;;;;;4988770;28;20184;-77
2022/01/14 09:39:48;;;;;;;22.23;13.27;;;4.50;99.90;;;;;;4987880;28;20673;-78
2022/01/14 09:42:14;;;;;;;29.60;14.63;;;4.60;99.90;;;;;;4970116;28;20279;-74
2022/01/14 09:44:41;;;;;;;24.03;14.00;;;4.60;99.90;;;;;;4988155;28;20264;-78
2022/01/14 09:47:07;;;;;;;25.23;14.40;;;4.60;99.90;;;;;;4989071;28;20616;-78
2022/01/14 09:49:33;;;;;;;26.47;12.83;;;4.60;99.90;;;;;;4989144;28;20192;-76
2022/01/14 09:51:59;;;;;;;26.23;14.50;;;4.70;99.90;;;;;;4988403;28;20195;-78
2022/01/14 09:54:24;;;;;;;26.23;13.80;;;4.70;99.90;;;;;;4988068;28;20216;-77
2022/01/14 09:56:50;;;;;;;26.27;13.27;;;4.60;99.90;;;;;;4971391;28;20207;-76
2022/01/14 09:59:17;;;;;;;24.00;13.17;;;4.70;99.90;;;;;;4970928;28;20184;-76
2022/01/14 10:01:47;;;;;;;26.07;15.10;;;4.80;99.90;;;;;;4988233;28;20184;-78
2022/01/14 10:04:22;;;;;;;27.13;13.93;;;4.80;99.90;;;;;;4968417;28;20215;-77
2022/01/14 10:06:53;;;;;;;23.93;13.13;;;4.80;99.90;;;;;;4986047;28;20188;-75
2022/01/14 10:09:38;;;;;;;26.93;13.10;;;4.80;99.90;;;;;;4987754;28;20195;-78
2022/01/14 10:12:13;;;;;;;25.00;13.03;;;5.00;99.90;;;;;;4989078;28;20184;-79
2022/01/14 10:14:43;;;;;;;24.50;13.50;;;5.00;99.90;;;;;;4989606;28;20741;-77
2022/01/14 10:17:10;;;;;;;28.07;14.93;;;4.90;99.90;;;;;;4989439;28;20177;-78
2022/01/14 10:19:42;;;;;;;26.20;14.03;;;5.00;99.90;;;;;;4989214;28;20556;-76
2022/01/14 10:22:29;;;;;;;27.43;14.07;;;5.00;99.90;;;;;;4989561;28;20191;-78
2022/01/14 10:24:56;;;;;;;25.80;14.33;;;5.10;99.90;;;;;;4988946;28;20232;-77
2022/01/14 10:27:45;;;;;;;24.30;13.83;;;5.10;99.90;;;;;;4990051;28;20181;-76
2022/01/14 10:30:21;;;;;;;24.50;13.60;;;5.20;99.90;;;;;;4970846;28;20198;-78
2022/01/14 10:32:57;;;;;;;29.73;15.20;;;5.20;99.90;;;;;;4990756;28;20195;-77
2022/01/14 10:35:26;;;;;;;27.67;14.63;;;5.20;99.90;;;;;;4989855;28;20211;-78
2022/01/14 10:37:55;;;;;;;27.20;13.90;;;5.10;99.90;;;;;;4990268;28;20188;-76
2022/01/14 10:40:23;;;;;;;29.73;15.37;;;5.20;99.90;;;;;;4973625;28;20184;-76
2022/01/14 10:42:52;;;;;;;23.97;13.40;;;5.20;99.90;;;;;;4989665;28;20259;-77
2022/01/14 10:45:27;;;;;;;25.57;14.40;;;5.20;99.90;;;;;;4991161;28;20214;-77
2022/01/14 10:48:00;;;;;;;29.13;14.97;;;5.30;99.90;;;;;;4974248;28;20200;-77
2022/01/14 10:50:45;;;;;;;30.13;14.87;;;5.30;99.90;;;;;;4990654;28;20186;-78
2022/01/14 10:53:26;;;;;;;28.10;13.97;;;5.30;99.90;;;;;;4973224;28;20275;-78
2022/01/14 10:55:58;;;;;;;28.43;13.23;;;5.30;99.90;;;;;;4991173;28;20207;-78
2022/01/14 10:58:27;;;;;;;26.70;14.43;;;5.40;99.90;;;;;;4991111;28;20192;-79
2022/01/14 11:01:04;;;;;;;26.67;14.73;;;5.40;99.90;;;;;;4989989;28;20181;-79
2022/01/14 11:03:34;;;;;;;27.07;15.03;;;5.40;99.90;;;;;;4991808;28;20184;-79
2022/01/14 11:06:28;;;;;;;25.77;13.77;;;5.50;99.90;;;;;;4990642;28;20700;-75
2022/01/14 11:09:00;;;;;;;25.60;13.47;;;5.40;99.90;;;;;;4986904;28;20227;-77
2022/01/14 11:11:28;;;;;;;26.30;14.23;;;5.40;99.90;;;;;;4991522;28;20267;-77
2022/01/14 11:13:53;;;;;;;26.10;14.73;;;5.30;99.90;;;;;;4989919;28;20689;-77
2022/01/14 11:16:19;;;;;;;24.23;13.30;;;5.30;99.90;;;;;;4991779;28;20173;-76
2022/01/14 11:18:46;;;;;;;27.80;14.13;;;5.30;99.90;;;;;;4991111;28;20188;-78
2022/01/14 11:23:57;;;;;;;25.57;12.87;;;5.30;99.90;;;;;;4991044;28;20233;-78
2022/01/14 11:26:28;;;;;;;30.60;14.73;;;5.50;99.90;;;;;;5008071;28;20239;-75
2022/01/14 11:28:56;;;;;;;22.93;13.63;;;5.40;99.90;;;;;;5008321;28;20196;-75
2022/01/14 11:31:24;;;;;;;26.87;14.33;;;5.30;99.90;;;;;;5008449;28;20196;-76
2022/01/14 11:33:50;;;;;;;27.43;13.53;;;5.50;99.90;;;;;;5008236;28;20218;-75
2022/01/14 11:36:16;;;;;;;28.23;14.17;;;5.50;99.90;;;;;;4990851;28;20192;-75
2022/01/14 11:38:44;;;;;;;29.80;15.03;;;5.50;99.90;;;;;;5008574;28;20176;-75
2022/01/14 11:41:14;;;;;;;26.40;14.73;;;5.50;99.90;;;;;;4995148;28;20297;-79
2022/01/14 11:43:40;;;;;;;26.73;13.77;;;5.60;99.90;;;;;;4986627;28;20188;-79
2022/01/14 11:46:08;;;;;;;28.73;14.70;;;5.70;99.90;;;;;;4990201;28;20648;-79
2022/01/14 11:48:39;;;;;;;25.37;14.07;;;5.70;99.90;;;;;;4989687;28;20258;-77
2022/01/14 11:51:07;;;;;;;27.77;14.13;;;5.60;99.90;;;;;;4988724;28;20200;-79
2022/01/14 11:53:36;;;;;;;26.80;13.03;;;5.60;99.90;;;;;;4989060;28;20192;-76
2022/01/14 11:56:03;;;;;;;28.60;14.60;;;5.60;99.90;;;;;;4989327;28;20254;-78
2022/01/14 11:58:29;;;;;;;26.47;14.50;;;5.60;99.90;;;;;;4988354;28;20219;-77
2022/01/14 12:00:55;;;;;;;28.57;15.07;;;5.50;99.90;;;;;;4987873;28;20218;-77
2022/01/14 12:03:26;;;;;;;27.50;14.90;;;5.50;99.90;;;;;;4985883;28;20626;-76
2022/01/14 12:06:07;;;;;;;30.87;15.17;;;5.50;99.90;;;;;;4986216;28;20208;-77
2022/01/14 12:08:42;;;;;;;27.30;14.40;;;5.60;99.90;;;;;;4984737;28;20287;-76
2022/01/14 12:11:07;;;;;;;24.17;13.93;;;5.50;99.90;;;;;;4984473;28;20184;-76
2022/01/14 12:13:53;;;;;;;28.23;14.40;;;5.50;99.90;;;;;;4987926;28;20198;-75
2022/01/14 12:16:35;;;;;;;25.17;13.27;;;5.50;99.90;;;;;;4989198;28;20175;-78
2022/01/14 12:19:10;;;;;;;27.37;13.47;;;5.50;99.90;;;;;;4972062;28;20219;-79
2022/01/14 12:21:48;;;;;;;26.63;13.00;;;5.60;99.90;;;;;;4972543;28;20266;-78
2022/01/14 12:24:21;;;;;;;27.33;13.30;;;5.60;99.90;;;;;;4971768;28;20246;-79
2022/01/14 12:27:00;;;;;;;26.73;13.67;;;5.60;99.90;;;;;;4989460;28;20192;-77
2022/01/14 12:29:43;;;;;;;26.70;12.57;;;5.80;99.90;;;;;;4988903;28;20244;-78
2022/01/14 12:32:31;;;;;;;28.47;14.63;;;5.70;99.90;;;;;;4986897;28;20279;-79
2022/01/14 12:34:56;;;;;;;25.43;13.07;;;5.70;99.90;;;;;;4988437;28;20228;-76
2022/01/14 12:37:33;;;;;;;25.77;13.60;;;5.70;99.90;;;;;;4988062;28;20260;-76
2022/01/14 12:40:11;;;;;;;28.10;13.30;;;5.70;99.90;;;;;;4987838;28;20222;-78
2022/01/14 12:42:39;;;;;;;27.43;14.50;;;5.60;99.90;;;;;;4987341;28;20227;-77
2022/01/14 12:45:07;;;;;;;24.50;13.03;;;5.60;99.90;;;;;;4970765;28;20216;-77
2022/01/14 12:47:38;;;;;;;25.03;13.87;;;5.60;99.90;;;;;;4989293;28;20215;-81
2022/01/14 12:50:10;;;;;;;24.17;12.93;;;5.60;99.90;;;;;;4971624;28;20533;-79
2022/01/14 12:52:49;;;;;;;24.63;13.77;;;5.60;99.90;;;;;;4989157;28;20182;-80
2022/01/14 12:55:17;;;;;;;29.13;13.63;;;5.60;99.90;;;;;;4988728;28;20219;-79
2022/01/14 12:57:42;;;;;;;25.70;13.57;;;5.50;99.90;;;;;;4971429;28;20274;-79
2022/01/14 13:00:10;;;;;;;26.23;13.27;;;5.50;99.90;;;;;;4989083;28;20746;-79
2022/01/14 13:02:36;;;;;;;23.17;12.63;;;5.60;99.90;;;;;;4989575;28;20219;-79
2022/01/14 13:05:16;;;;;;;24.93;12.80;;;5.60;99.90;;;;;;4970603;28;20250;-79
2022/01/14 13:07:42;;;;;;;25.80;13.13;;;5.60;99.90;;;;;;4989254;28;20187;-78
2022/01/14 13:10:11;;;;;;;24.97;13.33;;;5.60;99.90;;;;;;4972010;28;20188;-79
2022/01/14 13:12:40;;;;;;;24.77;13.03;;;5.60;99.90;;;;;;4989643;28;20180;-78
2022/01/14 13:15:20;;;;;;;26.47;12.70;;;5.50;99.90;;;;;;4987459;28;20697;-76
2022/01/14 13:17:57;;;;;;;21.47;11.73;;;5.40;99.90;;;;;;4986828;28;20267;-77
2022/01/14 13:20:24;;;;;;;24.53;13.17;;;5.50;99.90;;;;;;4986110;28;20591;-77